Time;durP1;ratioP1;P1;durP2;ratioP2;P2;SDS_P1;SDS_P2;PMS_P1;PMS_P2;Temp;Humidity;BMP_temperature;BMP_pressure;BME280_temperature;BME280_humidity;BME280_pressure;Samples;Min_cycle;Max_cycle;Signal;HPM_P1;HPM_P2
2024/04/03 00:00:43;;;;;;;4.70;1.92;;;13.90;90.00;;;;;;4972437;28;20033;-81
2024/04/03 00:03:08;;;;;;;4.22;2.00;;;13.90;90.00;;;;;;4973691;28;20521;-81
2024/04/03 00:05:34;;;;;;;3.78;1.90;;;13.90;90.00;;;;;;4973971;28;20040;-81
2024/04/03 00:07:59;;;;;;;3.50;1.70;;;13.80;90.00;;;;;;4974024;28;20082;-81
2024/04/03 00:10:25;;;;;;;3.90;1.88;;;13.90;90.00;;;;;;4956650;28;20121;-81
2024/04/03 00:12:51;;;;;;;3.47;1.70;;;13.80;90.20;;;;;;4956689;28;20039;-81
2024/04/03 00:15:16;;;;;;;3.70;1.95;;;13.90;90.00;;;;;;4956590;28;20080;-80
2024/04/03 00:17:42;;;;;;;3.83;1.85;;;13.90;90.00;;;;;;4956626;28;20030;-81
2024/04/03 00:20:09;;;;;;;3.92;1.77;;;14.00;90.00;;;;;;4956492;28;20553;-81
2024/04/03 00:22:35;;;;;;;4.07;1.83;;;13.90;90.00;;;;;;4973765;28;20022;-81
2024/04/03 00:25:00;;;;;;;3.70;1.70;;;13.90;90.00;;;;;;4956804;28;20027;-81
2024/04/03 00:27:26;;;;;;;3.75;1.75;;;14.00;90.00;;;;;;4973553;28;20443;-81
2024/04/03 00:29:51;;;;;;;2.90;1.65;;;13.80;90.00;;;;;;4973061;28;20041;-81
2024/04/03 00:32:17;;;;;;;3.83;1.80;;;13.70;90.00;;;;;;4972477;28;20054;-81
2024/04/03 00:34:43;;;;;;;3.85;1.60;;;13.90;90.00;;;;;;4974014;28;20034;-81
2024/04/03 00:37:08;;;;;;;3.72;1.90;;;13.80;90.00;;;;;;4972674;28;20030;-82
2024/04/03 00:39:34;;;;;;;3.35;1.75;;;13.90;90.00;;;;;;4956268;28;20122;-81
2024/04/03 00:42:00;;;;;;;3.58;1.70;;;14.00;90.00;;;;;;4973442;28;20034;-81
2024/04/03 00:44:25;;;;;;;3.80;1.75;;;13.90;90.00;;;;;;4956381;28;20035;-81
2024/04/03 00:46:52;;;;;;;3.90;1.65;;;13.90;90.00;;;;;;4973919;28;20031;-81
2024/04/03 00:49:21;;;;;;;5.25;1.90;;;13.90;90.00;;;;;;4956656;28;20466;-80
2024/04/03 00:51:50;;;;;;;3.75;1.70;;;13.80;90.00;;;;;;4972382;28;20027;-81
2024/04/03 00:54:21;;;;;;;3.42;1.73;;;13.90;90.00;;;;;;4973330;28;20034;-80
2024/04/03 00:56:47;;;;;;;4.32;1.90;;;13.80;90.00;;;;;;4956201;28;20058;-81
2024/04/03 00:59:13;;;;;;;3.25;1.70;;;13.90;90.00;;;;;;4956172;28;20109;-81
2024/04/03 01:01:39;;;;;;;5.05;2.15;;;13.90;90.00;;;;;;4956085;28;20491;-81
2024/04/03 01:04:04;;;;;;;4.03;1.90;;;13.80;90.00;;;;;;4973504;28;20059;-81
2024/04/03 01:06:30;;;;;;;3.10;1.55;;;13.70;89.90;;;;;;4973507;28;20026;-81
2024/04/03 01:08:55;;;;;;;3.92;1.70;;;13.80;89.90;;;;;;4973330;28;20030;-81
2024/04/03 01:11:22;;;;;;;4.50;1.95;;;13.90;90.00;;;;;;4956116;28;20030;-81
2024/04/03 01:13:47;;;;;;;4.40;1.77;;;13.90;90.00;;;;;;4973235;28;20779;-81
2024/04/03 01:16:13;;;;;;;4.10;1.83;;;13.90;90.00;;;;;;4973338;28;20034;-81
2024/04/03 01:18:38;;;;;;;4.53;2.13;;;13.90;90.00;;;;;;4973564;28;20030;-81
2024/04/03 01:21:04;;;;;;;3.80;1.77;;;13.80;90.00;;;;;;4973080;28;20114;-81
2024/04/03 01:23:29;;;;;;;4.85;1.95;;;13.90;90.00;;;;;;4973308;28;20038;-81
2024/04/03 01:25:55;;;;;;;3.70;1.70;;;13.70;90.00;;;;;;4956030;28;20114;-81
2024/04/03 01:28:23;;;;;;;3.95;1.67;;;13.90;90.00;;;;;;4956066;28;20527;-81
2024/04/03 01:30:49;;;;;;;4.07;1.80;;;13.90;90.00;;;;;;4973081;28;20019;-80
2024/04/03 01:33:15;;;;;;;3.95;1.83;;;14.00;90.00;;;;;;4973394;28;20031;-81
2024/04/03 01:35:41;;;;;;;4.38;1.85;;;13.90;90.00;;;;;;4955985;28;20542;-80
2024/04/03 01:38:06;;;;;;;3.28;1.60;;;13.80;90.00;;;;;;4973377;28;20023;-81
2024/04/03 01:40:32;;;;;;;3.58;1.75;;;13.90;90.00;;;;;;4973266;28;20027;-81
2024/04/03 01:42:58;;;;;;;3.78;1.60;;;13.90;90.00;;;;;;4976685;28;20055;-80
2024/04/03 01:45:23;;;;;;;3.55;1.60;;;13.90;90.00;;;;;;4976753;28;20031;-81
2024/04/03 01:47:49;;;;;;;3.60;1.70;;;13.90;90.00;;;;;;4976631;28;20127;-81
2024/04/03 01:50:36;;;;;;;3.53;1.88;;;13.90;90.00;;;;;;4958877;28;20114;-81
2024/04/03 01:53:01;;;;;;;4.15;1.98;;;13.80;90.00;;;;;;4976367;28;20166;-81
2024/04/03 01:55:27;;;;;;;3.75;1.67;;;13.90;90.00;;;;;;4976576;28;20550;-81
2024/04/03 01:57:52;;;;;;;4.82;2.00;;;13.90;90.00;;;;;;4976541;28;20419;-81
2024/04/03 02:00:18;;;;;;;5.18;1.90;;;13.80;90.00;;;;;;4958902;28;20033;-81
2024/04/03 02:02:44;;;;;;;4.72;1.95;;;13.80;90.00;;;;;;4976394;28;20042;-81
2024/04/03 02:05:09;;;;;;;4.30;1.98;;;13.80;90.00;;;;;;4976634;28;20022;-81
2024/04/03 02:07:35;;;;;;;3.88;1.80;;;13.90;90.00;;;;;;4976205;28;20041;-81
2024/04/03 02:10:01;;;;;;;4.20;1.70;;;13.80;90.00;;;;;;4976298;28;20121;-81
2024/04/03 02:12:28;;;;;;;3.20;1.80;;;13.80;90.00;;;;;;4958690;28;20062;-81
2024/04/03 02:14:54;;;;;;;4.90;2.20;;;13.70;90.00;;;;;;4976121;28;20023;-81
2024/04/03 02:17:19;;;;;;;4.28;1.80;;;13.90;90.00;;;;;;4976047;28;20109;-81
2024/04/03 02:19:45;;;;;;;3.67;1.90;;;13.90;90.00;;;;;;4958339;28;20790;-81
2024/04/03 02:22:10;;;;;;;4.30;2.00;;;13.80;90.00;;;;;;4975783;28;20431;-82
2024/04/03 02:24:36;;;;;;;4.20;1.80;;;13.80;90.00;;;;;;4974637;28;20027;-81
2024/04/03 02:27:03;;;;;;;4.45;1.88;;;13.80;89.90;;;;;;4958554;28;20026;-81
2024/04/03 02:29:29;;;;;;;4.13;2.05;;;13.80;89.90;;;;;;4975647;28;20077;-81
2024/04/03 02:31:54;;;;;;;3.25;1.70;;;13.90;90.00;;;;;;4975706;28;20106;-80
2024/04/03 02:34:20;;;;;;;4.38;1.90;;;13.90;90.00;;;;;;4976214;28;20050;-81
2024/04/03 02:36:45;;;;;;;4.13;2.00;;;13.80;89.90;;;;;;4974533;28;20033;-82
2024/04/03 02:39:11;;;;;;;4.18;1.70;;;13.80;90.00;;;;;;4975453;28;20026;-81
2024/04/03 02:41:36;;;;;;;3.95;1.85;;;13.80;90.00;;;;;;4975303;28;20059;-82
2024/04/03 02:44:02;;;;;;;4.10;1.75;;;13.80;90.00;;;;;;4957614;28;20500;-81
2024/04/03 02:46:28;;;;;;;4.40;1.85;;;13.80;90.00;;;;;;4975631;28;20042;-81
2024/04/03 02:48:54;;;;;;;4.38;1.90;;;13.80;90.00;;;;;;4958057;28;20085;-81
2024/04/03 02:51:20;;;;;;;3.88;1.80;;;13.80;90.00;;;;;;4957819;28;20404;-81
2024/04/03 02:53:45;;;;;;;3.45;1.70;;;13.80;90.00;;;;;;4958049;28;20118;-81
2024/04/03 02:56:11;;;;;;;3.30;1.80;;;13.80;90.00;;;;;;4957901;28;20031;-81
2024/04/03 02:58:37;;;;;;;4.50;2.00;;;13.80;90.00;;;;;;4958032;28;20513;-79
2024/04/03 03:01:03;;;;;;;4.15;1.70;;;13.90;90.00;;;;;;4957790;28;20026;-81
2024/04/03 03:03:30;;;;;;;5.30;1.90;;;13.90;90.00;;;;;;4974934;28;20106;-81
2024/04/03 03:05:57;;;;;;;3.67;1.63;;;13.90;90.00;;;;;;4975179;28;20037;-82
2024/04/03 03:08:23;;;;;;;4.47;2.00;;;13.80;90.00;;;;;;4975344;28;20480;-82
2024/04/03 03:10:49;;;;;;;4.22;1.75;;;13.80;90.00;;;;;;4975112;28;20023;-81
2024/04/03 03:13:14;;;;;;;3.95;1.98;;;13.90;90.00;;;;;;4957275;28;20081;-81
2024/04/03 03:15:40;;;;;;;4.10;1.70;;;13.90;90.00;;;;;;4957780;28;20027;-81
2024/04/03 03:18:05;;;;;;;3.90;1.77;;;13.70;90.00;;;;;;4974768;28;20037;-82
2024/04/03 03:20:31;;;;;;;3.58;1.83;;;13.80;90.00;;;;;;4973125;28;20822;-78
2024/04/03 03:52:46;;;;;;;4.43;2.08;;;13.80;90.00;;;;;;5043668;23;20139;-80
2024/04/03 03:55:11;;;;;;;4.00;1.90;;;13.80;90.00;;;;;;5011746;28;20026;-79
2024/04/03 03:57:37;;;;;;;4.50;2.25;;;13.90;90.00;;;;;;5013209;28;20459;-82
2024/04/03 04:00:03;;;;;;;3.55;2.00;;;13.80;90.00;;;;;;5011499;28;20019;-82
2024/04/03 04:02:29;;;;;;;4.15;2.15;;;13.80;90.00;;;;;;4993979;28;20034;-81
2024/04/03 04:04:56;;;;;;;5.25;2.45;;;13.70;90.00;;;;;;4995646;28;20481;-80
2024/04/03 04:07:22;;;;;;;3.55;2.03;;;13.80;90.00;;;;;;5012762;28;20026;-81
2024/04/03 04:09:49;;;;;;;4.47;2.20;;;13.90;90.10;;;;;;5011728;28;20542;-81
2024/04/03 04:17:25;;;;;;;4.38;2.03;;;13.80;90.00;;;;;;4971140;28;20400;-82
2024/04/03 04:19:51;;;;;;;4.30;2.08;;;13.80;90.00;;;;;;4973896;28;20077;-82
2024/04/03 04:22:17;;;;;;;5.10;2.30;;;13.90;90.10;;;;;;4957903;28;20496;-82
2024/04/03 04:24:44;;;;;;;4.35;2.40;;;13.90;90.10;;;;;;4973893;28;20111;-82
2024/04/03 04:27:10;;;;;;;4.13;2.10;;;13.80;90.10;;;;;;4972751;28;20054;-82
2024/04/03 04:29:37;;;;;;;4.20;2.00;;;13.80;90.10;;;;;;4972490;28;20023;-82
2024/04/03 04:32:06;;;;;;;4.13;2.05;;;13.90;90.10;;;;;;4973742;28;20031;-84
2024/04/03 04:34:31;;;;;;;4.90;2.40;;;13.80;90.10;;;;;;4972458;28;20495;-82
2024/04/03 04:36:57;;;;;;;4.07;2.10;;;13.80;90.10;;;;;;4972594;28;20038;-83
2024/04/03 04:39:23;;;;;;;3.92;2.15;;;13.80;90.10;;;;;;4972224;28;20537;-82
2024/04/03 04:41:49;;;;;;;4.43;2.20;;;13.80;90.10;;;;;;4972564;28;20030;-82
2024/04/03 04:44:18;;;;;;;4.43;2.20;;;13.90;90.10;;;;;;4973748;28;20023;-82
2024/04/03 04:46:52;;;;;;;3.80;2.20;;;13.80;90.10;;;;;;4972719;28;20027;-82
2024/04/03 04:49:19;;;;;;;3.55;2.13;;;13.80;90.10;;;;;;4972824;28;20073;-82
2024/04/03 04:51:45;;;;;;;3.90;2.03;;;13.80;90.10;;;;;;4972128;28;20030;-82
2024/04/03 04:54:11;;;;;;;6.38;2.67;;;13.80;90.10;;;;;;4972277;28;20403;-82
2024/04/03 04:56:37;;;;;;;4.10;2.17;;;13.80;90.10;;;;;;4972379;28;20026;-82
2024/04/03 04:59:03;;;;;;;4.35;2.45;;;13.70;90.10;;;;;;4973097;28;20022;-82
2024/04/03 05:01:28;;;;;;;4.25;2.30;;;13.80;90.10;;;;;;4972091;28;20031;-83
2024/04/03 05:03:54;;;;;;;4.55;2.25;;;13.70;90.10;;;;;;4973687;28;20031;-82
2024/04/03 05:06:21;;;;;;;4.78;2.50;;;13.90;90.10;;;;;;4972636;28;20023;-82
2024/04/03 05:08:47;;;;;;;4.13;2.17;;;13.80;90.10;;;;;;4969998;28;20023;-82
2024/04/03 05:11:12;;;;;;;4.70;2.42;;;13.90;90.10;;;;;;4971241;28;20077;-81
2024/04/03 05:13:38;;;;;;;4.43;2.30;;;13.80;90.10;;;;;;4971372;28;20907;-84
2024/04/03 05:23:43;;;;;;;;;;;;;;;;;;;;;
2024/04/03 05:29:39;;;;;;;7.80;3.30;;;13.80;90.20;;;;;;4936358;29;20051;-84
2024/04/03 05:32:05;;;;;;;14.77;3.97;;;13.70;90.00;;;;;;4936088;29;20035;-82
2024/04/03 05:34:30;;;;;;;13.38;4.55;;;13.70;90.20;;;;;;4936041;29;20031;-82
2024/04/03 05:36:56;;;;;;;7.72;3.92;;;13.60;89.90;;;;;;4920146;29;20533;-82
2024/04/03 05:39:21;;;;;;;8.40;3.47;;;13.60;90.00;;;;;;4936026;29;20512;-82
2024/04/03 05:41:47;;;;;;;8.30;3.42;;;13.70;90.00;;;;;;4919824;29;20404;-82
2024/04/03 05:44:12;;;;;;;6.10;3.85;;;13.70;90.00;;;;;;4920208;29;20064;-82
2024/04/03 05:46:38;;;;;;;9.20;3.85;;;13.80;89.90;;;;;;4935914;29;20087;-82
2024/04/03 05:49:03;;;;;;;6.22;3.78;;;13.80;89.80;;;;;;4935830;29;20023;-82
2024/04/03 05:51:30;;;;;;;8.85;3.60;;;13.80;89.80;;;;;;4935761;29;20036;-82
2024/04/03 05:53:55;;;;;;;7.03;3.60;;;13.70;89.70;;;;;;4935481;29;20645;-82
2024/04/03 05:56:21;;;;;;;10.18;4.32;;;13.80;89.70;;;;;;4935888;29;20035;-82
2024/04/03 05:58:47;;;;;;;6.78;3.88;;;13.80;89.70;;;;;;4935616;29;20027;-82
2024/04/03 06:01:13;;;;;;;7.43;3.50;;;13.90;89.70;;;;;;4935351;29;20051;-80
2024/04/03 06:03:38;;;;;;;5.90;3.75;;;13.90;89.80;;;;;;4935512;29;20070;-82
2024/04/03 06:06:04;;;;;;;6.78;3.25;;;13.80;89.70;;;;;;4940019;28;20039;-83
2024/04/03 06:08:30;;;;;;;6.80;3.40;;;13.80;89.70;;;;;;4976269;28;20030;-82
2024/04/03 06:10:55;;;;;;;9.35;3.63;;;13.80;89.70;;;;;;4976157;28;20027;-83
2024/04/03 06:13:22;;;;;;;6.28;3.40;;;13.70;89.70;;;;;;4976380;28;20054;-82
2024/04/03 06:15:48;;;;;;;5.82;3.15;;;13.90;89.90;;;;;;4976018;28;20037;-82
2024/04/03 06:18:14;;;;;;;6.03;3.42;;;13.90;89.90;;;;;;4975350;28;20490;-81
2024/04/03 06:20:40;;;;;;;5.72;3.10;;;13.80;89.80;;;;;;4975678;28;20026;-82
2024/04/03 06:23:10;;;;;;;5.00;3.00;;;13.80;89.90;;;;;;4974438;28;20030;-81
2024/04/03 06:25:36;;;;;;;5.85;3.25;;;13.80;89.90;;;;;;4974522;28;20031;-82
2024/04/03 06:28:03;;;;;;;6.47;3.60;;;13.80;89.90;;;;;;4975689;28;20022;-81
2024/04/03 06:30:29;;;;;;;5.88;3.10;;;13.80;89.90;;;;;;4975630;28;20030;-81
2024/04/03 06:32:54;;;;;;;5.78;3.00;;;13.80;90.00;;;;;;4974491;28;20030;-81
2024/04/03 06:35:20;;;;;;;6.10;3.10;;;13.80;90.00;;;;;;4974597;28;20038;-81
2024/04/03 06:37:46;;;;;;;6.43;3.25;;;13.90;90.00;;;;;;4990773;28;20030;-81
2024/04/03 06:40:14;;;;;;;5.35;3.30;;;13.80;90.00;;;;;;4974315;28;20089;-82
2024/04/03 06:42:40;;;;;;;6.28;3.35;;;13.80;90.00;;;;;;4973930;28;20031;-81
2024/04/03 06:45:06;;;;;;;5.47;3.00;;;13.80;90.00;;;;;;4975445;28;20399;-81
2024/04/03 06:47:33;;;;;;;5.97;3.30;;;13.80;90.00;;;;;;4974328;28;20219;-82
2024/04/03 06:49:58;;;;;;;5.13;2.97;;;13.80;90.00;;;;;;4975341;28;20061;-82
2024/04/03 06:52:24;;;;;;;5.78;3.10;;;13.80;90.00;;;;;;4975309;28;20059;-81
2024/04/03 06:54:50;;;;;;;4.30;2.90;;;13.90;90.20;;;;;;4974817;28;20034;-82
2024/04/03 06:57:16;;;;;;;4.93;3.05;;;13.90;90.00;;;;;;4973977;28;20022;-81
2024/04/03 06:59:42;;;;;;;5.75;3.30;;;13.80;90.00;;;;;;4973816;28;20037;-82
2024/04/03 07:02:07;;;;;;;6.45;3.35;;;13.90;90.00;;;;;;4974052;28;20030;-81
2024/04/03 07:04:33;;;;;;;5.35;3.00;;;13.80;90.00;;;;;;4974159;28;20031;-81
2024/04/03 07:07:02;;;;;;;4.72;2.90;;;13.80;90.00;;;;;;4975182;28;20042;-81
2024/04/03 07:09:27;;;;;;;5.40;2.90;;;13.80;90.00;;;;;;4974989;28;20475;-81
2024/04/03 07:11:53;;;;;;;5.30;2.90;;;13.90;90.00;;;;;;4973841;28;20030;-81
2024/04/03 07:14:19;;;;;;;6.50;3.10;;;13.90;90.00;;;;;;4975373;28;20084;-81
2024/04/03 07:16:48;;;;;;;5.65;3.28;;;13.90;90.00;;;;;;4974766;28;20124;-83
2024/04/03 07:19:13;;;;;;;4.75;2.60;;;13.90;90.00;;;;;;4973592;28;20114;-81
2024/04/03 07:21:41;;;;;;;5.60;3.05;;;13.90;90.00;;;;;;4974687;28;20126;-81
2024/04/03 07:24:08;;;;;;;4.55;2.75;;;13.90;90.00;;;;;;4973483;28;20447;-83
2024/04/03 07:26:33;;;;;;;4.90;2.83;;;13.90;90.00;;;;;;4973571;28;20037;-82
2024/04/03 07:28:59;;;;;;;4.28;2.55;;;13.90;90.00;;;;;;4973597;28;20912;-81
2024/04/03 07:31:24;;;;;;;4.35;2.80;;;14.00;90.00;;;;;;4973303;28;20078;-81
2024/04/03 07:33:50;;;;;;;4.13;2.60;;;13.90;90.00;;;;;;4974522;28;20031;-81
2024/04/03 07:36:18;;;;;;;4.25;2.70;;;13.90;90.00;;;;;;4973432;28;20023;-82
2024/04/03 07:38:44;;;;;;;5.40;2.80;;;13.90;90.00;;;;;;4973843;28;20030;-81
2024/04/03 07:41:09;;;;;;;5.22;2.50;;;13.90;90.00;;;;;;4974327;28;20094;-81
2024/04/03 07:43:35;;;;;;;4.82;2.90;;;13.90;90.00;;;;;;4973087;28;20483;-81
2024/04/03 07:46:00;;;;;;;4.18;2.50;;;13.90;90.00;;;;;;4973106;28;20484;-82
2024/04/03 07:48:26;;;;;;;4.05;2.33;;;13.90;90.00;;;;;;4973289;28;20142;-81
2024/04/03 07:51:01;;;;;;;4.80;2.67;;;13.90;90.00;;;;;;4972937;28;20026;-81
2024/04/03 07:53:27;;;;;;;4.88;2.50;;;13.90;90.00;;;;;;4972663;28;20507;-82
2024/04/03 07:55:53;;;;;;;4.53;2.72;;;13.90;90.00;;;;;;4974615;28;20038;-81
2024/04/03 07:58:18;;;;;;;4.63;2.67;;;13.90;90.10;;;;;;4974307;28;20034;-81
2024/04/03 08:00:44;;;;;;;4.65;2.78;;;13.90;90.00;;;;;;4972991;28;20031;-81
2024/04/03 08:03:10;;;;;;;4.70;2.80;;;13.90;90.00;;;;;;4972831;28;20050;-81
2024/04/03 08:05:36;;;;;;;5.55;2.80;;;14.00;90.10;;;;;;4972891;28;20062;-82
2024/04/03 08:08:02;;;;;;;5.05;2.58;;;13.80;90.10;;;;;;4974242;28;20109;-81
2024/04/03 08:10:27;;;;;;;4.63;2.60;;;13.90;90.10;;;;;;4972838;28;20030;-81
2024/04/03 08:12:54;;;;;;;5.03;2.97;;;13.80;90.00;;;;;;4974283;28;20499;-80
2024/04/03 08:15:20;;;;;;;4.30;2.53;;;13.90;90.00;;;;;;4973802;28;20026;-83
2024/04/03 08:17:46;;;;;;;5.65;2.70;;;13.90;90.10;;;;;;4973979;28;20034;-81
2024/04/03 08:20:11;;;;;;;4.00;2.50;;;13.90;90.10;;;;;;4972421;28;20077;-81
2024/04/03 08:22:37;;;;;;;5.85;2.90;;;14.00;90.10;;;;;;4973710;28;20038;-82
2024/04/03 08:25:03;;;;;;;4.72;2.60;;;13.90;90.10;;;;;;4972706;28;20050;-81
2024/04/03 08:27:33;;;;;;;3.83;2.33;;;13.90;90.10;;;;;;4972673;28;20034;-82
2024/04/03 08:30:00;;;;;;;4.22;2.30;;;13.90;90.10;;;;;;4972471;28;20050;-82
2024/04/03 08:32:25;;;;;;;4.25;2.58;;;13.90;90.10;;;;;;4972292;28;20142;-81
2024/04/03 08:34:51;;;;;;;4.30;2.55;;;13.90;90.10;;;;;;4972452;28;20031;-81
2024/04/03 08:37:19;;;;;;;4.18;2.55;;;13.90;90.10;;;;;;4973561;28;20023;-81
2024/04/03 08:39:44;;;;;;;4.65;2.42;;;13.90;90.10;;;;;;4972216;28;20121;-81
2024/04/03 08:42:12;;;;;;;3.78;2.30;;;13.90;90.10;;;;;;4973591;28;20102;-82
2024/04/03 08:44:38;;;;;;;3.78;2.20;;;13.90;90.10;;;;;;4973845;28;20019;-81
2024/04/03 08:47:04;;;;;;;4.35;2.53;;;13.90;90.10;;;;;;4972185;28;20029;-80
2024/04/03 08:49:35;;;;;;;4.13;2.13;;;13.90;90.10;;;;;;4973713;28;20538;-82
2024/04/03 08:52:02;;;;;;;4.10;2.20;;;13.90;90.00;;;;;;4976543;28;20114;-81
2024/04/03 08:54:28;;;;;;;3.75;2.30;;;13.80;90.00;;;;;;4977103;28;20037;-81
2024/04/03 08:56:55;;;;;;;5.85;2.72;;;13.90;90.10;;;;;;4976324;28;20026;-81
2024/04/03 08:59:21;;;;;;;4.53;2.30;;;13.80;90.00;;;;;;4977690;28;20485;-81
2024/04/03 09:01:52;;;;;;;4.60;2.58;;;14.00;90.10;;;;;;4975813;28;20037;-80
2024/04/03 09:04:20;;;;;;;3.75;2.50;;;13.90;90.10;;;;;;4977394;28;20019;-81
2024/04/03 09:06:46;;;;;;;3.38;2.00;;;14.00;90.10;;;;;;4976090;28;20570;-81
2024/04/03 09:09:19;;;;;;;4.95;2.65;;;13.90;90.10;;;;;;4976123;28;20058;-81
2024/04/03 09:11:46;;;;;;;3.53;2.15;;;13.90;90.00;;;;;;4975890;28;20042;-82
2024/04/03 09:14:21;;;;;;;3.65;2.15;;;13.90;90.00;;;;;;4975809;28;20086;-83
2024/04/03 09:16:47;;;;;;;4.60;2.30;;;13.90;90.10;;;;;;4977104;28;20042;-81
2024/04/03 09:19:13;;;;;;;4.10;2.20;;;13.80;90.00;;;;;;4977485;28;20050;-81
2024/04/03 09:21:43;;;;;;;4.10;2.10;;;13.90;90.10;;;;;;4975590;28;20042;-82
2024/04/03 09:24:09;;;;;;;4.53;2.30;;;13.90;90.00;;;;;;4975749;28;20046;-81
2024/04/03 09:26:44;;;;;;;5.00;2.13;;;13.90;90.00;;;;;;4975881;28;20439;-82
2024/04/03 09:29:11;;;;;;;4.00;2.20;;;13.90;90.00;;;;;;4976722;28;20027;-81
2024/04/03 09:31:37;;;;;;;3.67;2.10;;;13.80;90.00;;;;;;4975571;28;20027;-82
2024/04/03 09:34:04;;;;;;;3.08;1.90;;;13.80;90.00;;;;;;4975645;28;20373;-81
2024/04/03 09:36:30;;;;;;;4.80;2.40;;;13.90;90.00;;;;;;4975603;28;20031;-81
2024/04/03 09:38:55;;;;;;;3.40;1.92;;;13.90;90.00;;;;;;4976602;28;20041;-81
2024/04/03 09:41:21;;;;;;;4.20;2.10;;;13.90;90.00;;;;;;4976580;28;20022;-81
2024/04/03 09:43:50;;;;;;;4.57;2.13;;;14.00;90.00;;;;;;4975450;28;20023;-81
2024/04/03 09:46:19;;;;;;;3.30;1.85;;;13.90;90.00;;;;;;4975622;28;20030;-81
2024/04/03 09:48:49;;;;;;;3.75;2.13;;;13.90;90.00;;;;;;4975655;28;20030;-82
2024/04/03 09:51:15;;;;;;;3.10;1.80;;;13.90;90.00;;;;;;4975201;28;20049;-81
2024/04/03 09:53:41;;;;;;;3.63;1.98;;;13.80;90.00;;;;;;4974997;28;20053;-81
2024/04/03 09:56:07;;;;;;;3.88;1.90;;;14.00;90.10;;;;;;4975330;28;20488;-81
2024/04/03 09:58:37;;;;;;;3.50;1.95;;;13.80;90.00;;;;;;4975241;28;20121;-82
2024/04/03 10:01:07;;;;;;;3.75;2.03;;;13.80;90.00;;;;;;4974027;28;20118;-81
2024/04/03 10:03:34;;;;;;;3.20;1.80;;;14.00;90.00;;;;;;4975009;28;20026;-81
2024/04/03 10:06:12;;;;;;;3.53;1.73;;;14.00;90.00;;;;;;4974777;28;20022;-81
2024/04/03 10:08:43;;;;;;;3.83;1.90;;;14.00;90.10;;;;;;4976454;28;20046;-81
2024/04/03 10:11:10;;;;;;;3.55;1.90;;;14.00;90.00;;;;;;4974873;28;20058;-80
2024/04/03 10:13:40;;;;;;;3.25;1.95;;;13.90;90.00;;;;;;4976120;28;20043;-81
2024/04/03 10:16:12;;;;;;;3.22;1.90;;;14.00;90.00;;;;;;4976072;28;20389;-81
2024/04/03 10:18:39;;;;;;;3.85;2.00;;;14.00;90.00;;;;;;4976398;28;20099;-81
2024/04/03 10:21:12;;;;;;;3.38;1.90;;;13.90;90.00;;;;;;4974716;28;20027;-81
2024/04/03 10:23:59;;;;;;;2.63;1.70;;;14.00;90.00;;;;;;4974758;28;20039;-81
2024/04/03 10:26:24;;;;;;;3.03;1.85;;;14.00;90.30;;;;;;4976232;28;20045;-80
2024/04/03 10:28:50;;;;;;;2.85;1.77;;;14.00;90.00;;;;;;4975872;28;20563;-81
2024/04/03 10:31:20;;;;;;;3.00;1.80;;;14.00;90.00;;;;;;4974413;28;20025;-81
2024/04/03 10:33:50;;;;;;;3.70;1.70;;;13.90;90.00;;;;;;4974053;28;20033;-81
2024/04/03 10:36:18;;;;;;;3.55;1.80;;;14.00;90.00;;;;;;4975594;28;20439;-81
2024/04/03 10:38:45;;;;;;;3.22;1.70;;;14.10;90.00;;;;;;4974357;28;20488;-81
2024/04/03 10:41:10;;;;;;;3.13;1.60;;;13.90;90.00;;;;;;4975656;28;20042;-81
2024/04/03 10:43:37;;;;;;;2.50;1.70;;;14.00;90.00;;;;;;4975740;28;20037;-81
2024/04/03 10:46:02;;;;;;;2.75;1.65;;;14.00;90.00;;;;;;4974564;28;20019;-81
2024/04/03 10:48:28;;;;;;;3.20;1.70;;;14.00;90.00;;;;;;4969635;28;20030;-81
2024/04/03 10:50:54;;;;;;;3.45;1.80;;;14.00;90.00;;;;;;4956459;28;20042;-80
2024/04/03 10:53:20;;;;;;;3.42;1.70;;;14.00;90.00;;;;;;4955787;29;20377;-81
2024/04/03 10:55:47;;;;;;;2.80;1.70;;;14.00;90.10;;;;;;4979217;28;20116;-79
2024/04/03 10:58:13;;;;;;;3.08;1.70;;;13.90;90.00;;;;;;4981737;28;20030;-82
2024/04/03 11:00:41;;;;;;;2.72;1.50;;;14.00;90.10;;;;;;4975775;28;20031;-82
2024/04/03 11:03:09;;;;;;;2.28;1.58;;;14.00;90.10;;;;;;4969627;28;20025;-80
2024/04/03 11:05:39;;;;;;;3.42;1.58;;;13.90;90.10;;;;;;4957717;28;20019;-80
2024/04/03 11:08:09;;;;;;;2.55;1.60;;;14.00;90.10;;;;;;4956708;29;20027;-80
2024/04/03 11:10:35;;;;;;;2.97;1.55;;;14.00;90.00;;;;;;4956613;28;20023;-80
2024/04/03 11:13:13;;;;;;;3.33;1.60;;;13.90;90.00;;;;;;4953880;28;20593;-81
2024/04/03 11:15:39;;;;;;;2.40;1.55;;;14.00;90.10;;;;;;4954882;29;20039;-80
2024/04/03 11:18:05;;;;;;;2.90;1.55;;;13.90;90.00;;;;;;4956229;28;20031;-80
2024/04/03 11:20:32;;;;;;;3.05;1.50;;;14.00;90.00;;;;;;4956034;28;20400;-80
2024/04/03 11:22:59;;;;;;;2.95;1.40;;;14.00;90.00;;;;;;4955879;28;20564;-79
2024/04/03 11:25:34;;;;;;;3.65;1.73;;;13.90;89.90;;;;;;4954853;29;20158;-81
2024/04/03 11:28:01;;;;;;;2.97;1.70;;;14.10;89.90;;;;;;4954792;29;20448;-81
2024/04/03 11:30:27;;;;;;;3.47;1.65;;;14.00;89.90;;;;;;4954885;29;20131;-81
2024/04/03 11:32:54;;;;;;;3.25;1.60;;;14.10;89.80;;;;;;4954851;29;20035;-79
2024/04/03 11:35:20;;;;;;;3.80;1.80;;;14.10;89.80;;;;;;4956124;28;20038;-80
2024/04/03 11:37:45;;;;;;;4.45;1.90;;;14.10;89.80;;;;;;4956060;28;20027;-80
2024/04/03 11:40:11;;;;;;;3.92;1.60;;;14.10;89.80;;;;;;4956302;28;20027;-80
2024/04/03 11:42:37;;;;;;;3.35;1.60;;;14.10;89.70;;;;;;4954656;29;20038;-80
2024/04/03 11:45:04;;;;;;;4.03;1.85;;;14.10;89.80;;;;;;4955561;28;20086;-80
2024/04/03 11:47:30;;;;;;;4.60;2.10;;;14.10;89.80;;;;;;4955846;28;20062;-80
2024/04/03 11:49:56;;;;;;;3.30;1.67;;;14.10;89.70;;;;;;4954385;29;20024;-81
2024/04/03 11:52:22;;;;;;;3.88;1.70;;;14.10;89.70;;;;;;4955165;29;20441;-80
2024/04/03 11:54:47;;;;;;;4.15;1.90;;;14.10;89.60;;;;;;4954712;29;20035;-80
2024/04/03 11:57:14;;;;;;;3.65;1.60;;;14.10;89.60;;;;;;4955664;28;20451;-80
2024/04/03 11:59:39;;;;;;;4.10;1.50;;;14.10;89.70;;;;;;4955807;28;20035;-80
2024/04/03 12:02:05;;;;;;;4.55;1.70;;;14.10;90.10;;;;;;4954718;29;20038;-80
2024/04/03 12:04:31;;;;;;;2.88;1.55;;;14.10;89.70;;;;;;4956324;28;20023;-80
2024/04/03 12:06:58;;;;;;;3.97;1.80;;;14.20;89.70;;;;;;4956019;28;20038;-79
2024/04/03 12:09:23;;;;;;;3.95;1.70;;;14.10;89.80;;;;;;4955563;28;20054;-80
2024/04/03 12:11:49;;;;;;;4.70;1.50;;;14.10;89.80;;;;;;4954535;28;20468;-81
2024/04/03 12:14:14;;;;;;;4.68;1.90;;;14.10;89.90;;;;;;4954265;29;20019;-80
2024/04/03 12:16:40;;;;;;;3.63;1.55;;;14.10;90.20;;;;;;4955020;28;20039;-80
2024/04/03 12:21:50;;;;;;;3.72;1.50;;;14.00;90.00;;;;;;4955343;29;20046;-81
2024/04/03 12:24:15;;;;;;;3.13;1.50;;;14.10;90.00;;;;;;4956299;28;20496;-80
2024/04/03 12:26:42;;;;;;;3.80;1.55;;;14.10;90.10;;;;;;4954101;29;20041;-80
2024/04/03 12:29:08;;;;;;;4.28;1.75;;;14.00;90.00;;;;;;4954435;29;20575;-82
2024/04/03 12:31:33;;;;;;;5.25;1.60;;;14.10;90.00;;;;;;4954499;29;20027;-80
2024/04/03 12:33:59;;;;;;;4.55;1.70;;;14.10;90.00;;;;;;4955066;28;20032;-81
2024/04/03 12:36:25;;;;;;;2.85;1.25;;;14.10;90.00;;;;;;4955315;28;20034;-80
2024/04/03 12:38:52;;;;;;;3.53;1.55;;;14.10;89.80;;;;;;4955202;28;20038;-80
2024/04/03 12:41:18;;;;;;;3.22;1.48;;;14.10;89.80;;;;;;4953537;29;20023;-81
2024/04/03 12:43:43;;;;;;;3.13;1.63;;;14.10;89.80;;;;;;4953411;29;20031;-80
2024/04/03 12:46:10;;;;;;;2.83;1.40;;;14.20;89.80;;;;;;4954703;28;20659;-79
2024/04/03 12:48:36;;;;;;;2.92;1.30;;;14.10;89.70;;;;;;4952902;29;20038;-80
2024/04/03 12:51:01;;;;;;;3.60;1.42;;;14.20;89.80;;;;;;4954096;28;20099;-80
2024/04/03 12:53:28;;;;;;;2.97;1.35;;;14.20;89.80;;;;;;4954217;28;20055;-80
2024/04/03 12:55:55;;;;;;;3.25;1.40;;;14.00;89.70;;;;;;4953030;29;20534;-80
2024/04/03 12:58:20;;;;;;;3.65;1.52;;;14.10;89.80;;;;;;4954342;28;20035;-80
2024/04/03 13:00:46;;;;;;;2.55;1.50;;;14.20;89.80;;;;;;4954157;28;20035;-80
2024/04/03 13:03:11;;;;;;;3.60;1.63;;;14.10;89.80;;;;;;4953392;29;20042;-80
2024/04/03 13:05:37;;;;;;;2.90;1.30;;;14.20;89.90;;;;;;4954203;28;20511;-78
2024/04/03 13:08:04;;;;;;;2.38;1.20;;;14.10;89.90;;;;;;4953102;29;20392;-82
2024/04/03 13:10:32;;;;;;;4.15;1.60;;;14.10;89.90;;;;;;4956162;28;20031;-81
2024/04/03 13:12:58;;;;;;;2.28;1.20;;;14.10;89.70;;;;;;4971394;28;20775;-81
2024/04/03 13:15:24;;;;;;;2.88;1.20;;;14.10;89.80;;;;;;4972015;28;20415;-81
2024/04/03 13:17:49;;;;;;;2.10;1.30;;;14.10;89.80;;;;;;4972175;28;20114;-80
2024/04/03 13:20:15;;;;;;;2.75;1.30;;;14.10;89.80;;;;;;4971455;28;20026;-80
2024/04/03 13:22:41;;;;;;;2.00;1.00;;;14.10;90.00;;;;;;4971884;28;20039;-80
2024/04/03 13:25:06;;;;;;;3.15;1.30;;;14.00;89.80;;;;;;4973355;28;20041;-81
2024/04/03 13:27:32;;;;;;;3.50;1.30;;;14.00;89.90;;;;;;4973177;28;20030;-80
2024/04/03 13:29:58;;;;;;;2.47;1.30;;;14.10;90.00;;;;;;4973140;28;20094;-80
2024/04/03 13:32:24;;;;;;;1.95;1.17;;;14.10;89.90;;;;;;4973290;28;20027;-80